createdAt,value
2023-03-02T00:01:48.328Z,102219.88
2023-03-02T00:04:20.774Z,102215.56
2023-03-02T00:06:49.537Z,102214.66
2023-03-02T00:09:17.594Z,102218.25
2023-03-02T00:11:46.894Z,102220.00
2023-03-02T00:14:15.701Z,102225.38
2023-03-02T00:16:43.532Z,102218.28
2023-03-02T00:19:11.366Z,102222.69
2023-03-02T00:21:39.035Z,102220.06
2023-03-02T00:24:07.583Z,102221.00
2023-03-02T00:26:35.573Z,102213.81
2023-03-02T00:29:05.579Z,102211.19
2023-03-02T00:31:34.671Z,102210.28
2023-03-02T00:34:02.516Z,102212.09
2023-03-02T00:36:30.327Z,102218.38
2023-03-02T00:38:58.224Z,102208.53
2023-03-02T00:41:26.075Z,102212.16
2023-03-02T00:43:54.065Z,102212.13
2023-03-02T00:46:25.337Z,102217.44
2023-03-02T00:48:53.502Z,102205.91
2023-03-02T00:51:21.429Z,102213.94
2023-03-02T00:53:49.217Z,102213.94
2023-03-02T00:56:17.131Z,102204.13
2023-03-02T00:58:49.305Z,102208.59
2023-03-02T01:01:18.676Z,102205.91
2023-03-02T01:03:51.229Z,102199.72
2023-03-02T01:06:21.789Z,102206.81
2023-03-02T01:08:49.921Z,102192.59
2023-03-02T01:11:20.392Z,102198.78
2023-03-02T01:13:48.736Z,102194.31
2023-03-02T01:16:16.835Z,102195.22
2023-03-02T01:18:44.638Z,102206.81
2023-03-02T01:21:16.273Z,102196.16
2023-03-02T01:23:44.057Z,102190.78
2023-03-02T01:26:11.886Z,102189.03
2023-03-02T01:28:39.797Z,102178.44
2023-03-02T01:31:07.675Z,102176.66
2023-03-02T01:33:35.595Z,102181.09
2023-03-02T01:36:03.435Z,102176.63
2023-03-02T01:38:33.194Z,102181.09
2023-03-02T01:41:01.274Z,102182.03
2023-03-02T01:43:29.485Z,102178.47
2023-03-02T01:46:00.524Z,102177.56
2023-03-02T01:48:55.455Z,102174.78
2023-03-02T01:51:35.381Z,102172.22
2023-03-02T01:54:09.138Z,102175.75
2023-03-02T01:56:40.465Z,102182.88
2023-03-02T01:59:13.309Z,102174.84
2023-03-02T02:01:45.350Z,102182.00
2023-03-02T02:04:14.151Z,102174.03
2023-03-02T02:06:48.879Z,102168.66
2023-03-02T02:09:21.102Z,102164.25
2023-03-02T02:11:49.199Z,102164.22
2023-03-02T02:14:17.247Z,102166.03
2023-03-02T02:16:45.314Z,102153.59
2023-03-02T02:19:32.072Z,102152.69
2023-03-02T02:22:00.013Z,102155.38
2023-03-02T02:24:34.799Z,102148.25
2023-03-02T02:27:04.109Z,102150.97
2023-03-02T02:29:35.663Z,102150.97
2023-03-02T02:32:10.241Z,102144.78
2023-03-02T02:34:43.594Z,102146.47
2023-03-02T02:37:16.222Z,102138.56
2023-03-02T02:39:47.984Z,102141.19
2023-03-02T02:42:20.994Z,102135.00
2023-03-02T02:44:48.970Z,102133.25
2023-03-02T02:47:19.952Z,102131.44
2023-03-02T02:49:49.784Z,102135.91
2023-03-02T02:52:20.760Z,102132.34
2023-03-02T02:54:54.844Z,102129.66
2023-03-02T02:57:29.952Z,102126.06
2023-03-02T03:00:01.299Z,102126.13
2023-03-02T03:02:46.806Z,102130.59
2023-03-02T03:05:16.350Z,102129.72
2023-03-02T03:07:45.828Z,102124.41
2023-03-02T03:10:20.086Z,102126.16
2023-03-02T03:12:50.298Z,102130.59
2023-03-02T03:15:20.574Z,102123.50
2023-03-02T03:17:49.720Z,102128.81
2023-03-02T03:20:18.451Z,102129.69
2023-03-02T03:22:46.476Z,102135.03
2023-03-02T03:25:15.358Z,102128.81
2023-03-02T03:27:45.747Z,102129.72
2023-03-02T03:30:17.556Z,102122.59
2023-03-02T03:32:45.876Z,102113.75
2023-03-02T03:35:15.815Z,102126.19
2023-03-02T03:37:43.649Z,102116.41
2023-03-02T03:40:12.886Z,102123.50
2023-03-02T03:42:43.977Z,102120.88
2023-03-02T03:45:12.394Z,102127.94
2023-03-02T03:47:42.124Z,102134.16
2023-03-02T03:50:11.991Z,102125.28
2023-03-02T03:52:40.808Z,102132.38
2023-03-02T03:55:20.245Z,102128.81
2023-03-02T03:57:49.971Z,102135.03
2023-03-02T04:00:18.697Z,102128.81
2023-03-02T04:02:57.551Z,102129.72
2023-03-02T04:05:29.161Z,102134.16
2023-03-02T04:07:59.202Z,102129.72
2023-03-02T04:10:26.970Z,102122.63
2023-03-02T04:12:55.220Z,102130.63
2023-03-02T04:15:23.665Z,102134.16
2023-03-02T04:17:53.296Z,102127.94
2023-03-02T04:20:26.560Z,102130.59
2023-03-02T04:22:57.611Z,102135.03
2023-03-02T04:25:28.315Z,102127.97
2023-03-02T04:28:01.710Z,102133.28
2023-03-02T04:30:34.827Z,102127.03
2023-03-02T04:33:03.156Z,102119.06
2023-03-02T04:35:33.655Z,102126.16
2023-03-02T04:38:03.090Z,102119.06
2023-03-02T04:40:31.050Z,102119.06
2023-03-02T04:42:58.794Z,102120.88
2023-03-02T04:45:26.652Z,102119.06
2023-03-02T04:47:54.497Z,102120.84
2023-03-02T04:50:22.585Z,102119.97
2023-03-02T04:52:52.017Z,102121.75
2023-03-02T04:55:22.179Z,102127.94
2023-03-02T04:57:49.950Z,102127.06
2023-03-02T05:00:21.089Z,102119.97
2023-03-02T05:02:48.979Z,102114.66
2023-03-02T05:05:18.405Z,102115.53
2023-03-02T05:07:46.414Z,102114.66
2023-03-02T05:10:17.634Z,102116.41
2023-03-02T05:12:57.795Z,102113.75
2023-03-02T05:15:27.837Z,102119.97
2023-03-02T05:17:55.980Z,102113.78
2023-03-02T05:20:27.650Z,102117.31
2023-03-02T05:22:58.965Z,102125.28
2023-03-02T05:25:30.052Z,102123.53
2023-03-02T05:27:58.058Z,102118.19
2023-03-02T05:30:26.476Z,102121.75
2023-03-02T05:32:54.884Z,102115.53
2023-03-02T05:35:24.273Z,102117.28
2023-03-02T05:37:52.735Z,102127.91
2023-03-02T05:40:22.045Z,102125.28
2023-03-02T05:42:51.672Z,102125.25
2023-03-02T05:45:23.260Z,102119.06
2023-03-02T05:47:51.753Z,102120.84
2023-03-02T05:50:20.015Z,102122.59
2023-03-02T05:52:47.925Z,102114.63
2023-03-02T05:55:17.745Z,102120.84
2023-03-02T05:57:45.770Z,102117.28
2023-03-02T06:00:16.213Z,102110.22
2023-03-02T06:02:44.697Z,102114.63
2023-03-02T06:05:15.635Z,102119.09
2023-03-02T06:07:43.549Z,102127.06
2023-03-02T06:10:14.016Z,102119.97
2023-03-02T06:12:42.009Z,102122.59
2023-03-02T06:15:10.550Z,102127.91
2023-03-02T06:17:39.784Z,102122.63
2023-03-02T06:20:10.858Z,102123.50
2023-03-02T06:22:41.291Z,102124.38
2023-03-02T06:25:10.750Z,102126.16
2023-03-02T06:27:40.311Z,102123.50
2023-03-02T06:30:11.936Z,102134.13
2023-03-02T06:32:42.033Z,102123.47
2023-03-02T06:35:12.249Z,102137.69
2023-03-02T06:37:41.799Z,102138.56
2023-03-02T06:40:13.894Z,102137.66
2023-03-02T06:42:42.959Z,102143.88
2023-03-02T06:45:12.594Z,102145.63
2023-03-02T06:47:41.827Z,102149.25
2023-03-02T06:50:11.236Z,102146.53
2023-03-02T06:52:39.012Z,102138.59
2023-03-02T06:55:08.190Z,102146.53
2023-03-02T06:57:36.148Z,102139.47
2023-03-02T07:00:09.710Z,102137.69
2023-03-02T07:02:37.870Z,102134.16
2023-03-02T07:05:08.564Z,102143.91
2023-03-02T07:07:36.666Z,102146.56
2023-03-02T07:10:06.229Z,102150.13
2023-03-02T07:12:34.840Z,102146.59
2023-03-02T07:15:02.715Z,102151.00
2023-03-02T07:17:30.865Z,102156.31
2023-03-02T07:19:58.710Z,102154.44
2023-03-02T07:22:27.830Z,102143.63
2023-03-02T07:24:55.649Z,102142.53
2023-03-02T07:27:23.481Z,102143.03
2023-03-02T07:29:51.646Z,102145.38
2023-03-02T07:32:19.606Z,102145.38
2023-03-02T07:34:47.364Z,102148.41
2023-03-02T07:37:15.194Z,102144.56
2023-03-02T07:39:44.494Z,102146.97
2023-03-02T07:42:13.400Z,102132.28
2023-03-02T07:44:43.515Z,102139.69
2023-03-02T07:47:11.870Z,102145.81
2023-03-02T07:49:39.846Z,102147.81
2023-03-02T07:52:07.626Z,102142.31
2023-03-02T07:54:35.577Z,102138.59
2023-03-02T07:57:05.020Z,102141.44
2023-03-02T07:59:32.890Z,102138.00
2023-03-02T08:02:01.008Z,102143.63
2023-03-02T08:04:28.769Z,102149.19
2023-03-02T08:06:56.601Z,102152.28
2023-03-02T08:09:24.602Z,102152.19
2023-03-02T08:11:52.992Z,102149.63
2023-03-02T08:14:22.902Z,102148.59
2023-03-02T08:16:52.225Z,102143.91
2023-03-02T08:19:20.499Z,102148.25
2023-03-02T08:21:48.214Z,102147.50
2023-03-02T08:24:16.792Z,102148.06
2023-03-02T08:26:45.201Z,102142.72
2023-03-02T08:29:13.632Z,102137.25
2023-03-02T08:31:43.468Z,102138.28
2023-03-02T08:34:12.241Z,102136.63
2023-03-02T08:36:40.630Z,102128.63
2023-03-02T08:39:08.678Z,102136.38
2023-03-02T08:41:37.187Z,102124.03
2023-03-02T08:44:05.359Z,102136.63
2023-03-02T08:46:33.610Z,102124.53
2023-03-02T08:49:03.841Z,102126.31
2023-03-02T08:51:32.411Z,102117.97
2023-03-02T08:54:00.982Z,102130.09
2023-03-02T08:56:30.953Z,102119.44
2023-03-02T08:59:00.731Z,102117.91
2023-03-02T09:01:31.877Z,102119.25
2023-03-02T09:04:00.972Z,102112.25
2023-03-02T09:06:32.341Z,102116.94
2023-03-02T09:09:00.266Z,102119.94
2023-03-02T09:11:28.753Z,102133.41
2023-03-02T09:13:57.252Z,102123.41
2023-03-02T09:16:25.828Z,102118.13
2023-03-02T09:18:53.743Z,102116.91
2023-03-02T09:21:22.084Z,102129.69
2023-03-02T09:23:53.885Z,102120.53
2023-03-02T09:26:21.806Z,102121.19
2023-03-02T09:28:49.814Z,102118.94
2023-03-02T09:31:17.563Z,102099.34
2023-03-02T09:33:45.896Z,102102.88
2023-03-02T09:36:19.508Z,102095.72
2023-03-02T09:38:48.009Z,102093.47
2023-03-02T09:41:53.287Z,102093.72
2023-03-02T09:44:43.776Z,102090.66
2023-03-02T09:47:34.578Z,102091.69
2023-03-02T09:50:12.518Z,102091.50
2023-03-02T09:52:48.212Z,102083.81
2023-03-02T09:55:19.502Z,102078.81
2023-03-02T09:57:47.923Z,102076.06
2023-03-02T10:00:24.758Z,102085.88
2023-03-02T10:03:00.564Z,102081.19
2023-03-02T10:05:38.634Z,102082.72
2023-03-02T10:08:06.905Z,102083.44
2023-03-02T10:10:42.165Z,102084.09
2023-03-02T10:13:20.818Z,102084.00
2023-03-02T10:15:57.070Z,102092.13
2023-03-02T10:18:31.262Z,102090.13
2023-03-02T10:21:04.534Z,102089.50
2023-03-02T10:23:42.308Z,102075.44
2023-03-02T10:26:22.050Z,102079.53
2023-03-02T10:28:56.830Z,102074.03
2023-03-02T10:31:29.262Z,102075.38
2023-03-02T10:33:57.741Z,102066.56
2023-03-02T10:36:27.747Z,102065.59
2023-03-02T10:38:57.198Z,102069.06
2023-03-02T10:41:30.178Z,102064.94
2023-03-02T10:44:02.552Z,102068.28
2023-03-02T10:46:42.094Z,102060.34
2023-03-02T10:49:26.672Z,102062.44
2023-03-02T10:51:59.943Z,102062.59
2023-03-02T10:54:28.757Z,102052.88
2023-03-02T10:56:59.715Z,102049.94
2023-03-02T10:59:43.157Z,102044.22
2023-03-02T11:02:19.118Z,102050.53
2023-03-02T11:04:47.238Z,102055.69
2023-03-02T11:07:18.776Z,102054.38
2023-03-02T11:10:00.730Z,102046.03
2023-03-02T11:12:29.741Z,102040.56
2023-03-02T11:15:23.551Z,102047.50
2023-03-02T11:17:56.513Z,102047.63
2023-03-02T11:20:27.091Z,102044.44
2023-03-02T11:23:02.795Z,102047.44
2023-03-02T11:25:36.638Z,102042.69
2023-03-02T11:28:11.042Z,102038.59
2023-03-02T11:30:46.472Z,102020.41
2023-03-02T11:33:20.679Z,102021.09
2023-03-02T11:35:54.263Z,102013.44
2023-03-02T11:38:26.733Z,102017.66
2023-03-02T11:40:57.890Z,102022.69
2023-03-02T11:43:25.798Z,102011.66
2023-03-02T11:46:00.245Z,102019.94
2023-03-02T11:48:34.500Z,102017.34
2023-03-02T11:51:04.936Z,102026.88
2023-03-02T11:53:42.637Z,102021.44
2023-03-02T11:56:11.380Z,102023.69
2023-03-02T11:58:40.499Z,102025.59
2023-03-02T12:01:11.117Z,102026.09
2023-03-02T12:03:42.622Z,102011.97
2023-03-02T12:06:28.521Z,102016.31
2023-03-02T12:09:09.948Z,102002.16
2023-03-02T12:11:41.221Z,102002.22
2023-03-02T12:14:28.209Z,101992.50
2023-03-02T12:17:19.480Z,102003.84
2023-03-02T12:19:50.850Z,101993.25
2023-03-02T12:22:28.869Z,101994.03
2023-03-02T12:25:06.378Z,102004.03
2023-03-02T12:27:42.022Z,101986.66
2023-03-02T12:30:24.680Z,101995.06
2023-03-02T12:33:02.993Z,101988.44
2023-03-02T12:35:34.968Z,101989.91
2023-03-02T12:38:06.398Z,101984.84
2023-03-02T12:40:57.894Z,101978.59
2023-03-02T12:43:32.101Z,101973.25
2023-03-02T12:46:25.097Z,101978.28
2023-03-02T12:49:01.208Z,101966.97
2023-03-02T12:51:33.351Z,101957.47
2023-03-02T12:54:06.559Z,101951.81
2023-03-02T12:56:35.009Z,101951.19
2023-03-02T12:59:02.960Z,101929.09
2023-03-02T13:01:34.316Z,101931.50
2023-03-02T13:04:02.404Z,101941.81
2023-03-02T13:06:33.868Z,101928.06
2023-03-02T13:09:02.180Z,101939.53
2023-03-02T13:11:34.384Z,101924.66
2023-03-02T13:14:04.136Z,101910.06
2023-03-02T13:16:36.794Z,101906.75
2023-03-02T13:19:16.716Z,101906.22
2023-03-02T13:21:46.129Z,101912.06
2023-03-02T13:24:35.979Z,101906.53
2023-03-02T13:27:07.614Z,101915.25
2023-03-02T13:29:35.494Z,101918.69
2023-03-02T13:32:18.408Z,101916.06
2023-03-02T13:34:49.504Z,101919.84
2023-03-02T13:37:34.870Z,101918.97
2023-03-02T13:40:06.707Z,101922.06
2023-03-02T13:42:40.359Z,101923.56
2023-03-02T13:45:25.054Z,101917.50
2023-03-02T13:47:52.998Z,101916.78
2023-03-02T13:50:23.701Z,101915.31
2023-03-02T13:52:54.279Z,101919.66
2023-03-02T13:55:23.370Z,101922.44
2023-03-02T13:57:53.896Z,101914.03
2023-03-02T14:00:24.167Z,101903.81
2023-03-02T14:02:52.761Z,101899.38
2023-03-02T14:05:22.782Z,101914.06
2023-03-02T14:07:51.692Z,101917.13
2023-03-02T14:10:21.922Z,101922.59
2023-03-02T14:12:55.295Z,101919.97
2023-03-02T14:15:23.134Z,101919.19
2023-03-02T14:17:50.998Z,101914.56
2023-03-02T14:20:21.125Z,101919.47
2023-03-02T14:22:50.515Z,101916.84
2023-03-02T14:25:20.536Z,101914.75
2023-03-02T14:27:48.442Z,101921.94
2023-03-02T14:30:18.491Z,101915.69
2023-03-02T14:32:46.894Z,101916.34
2023-03-02T14:35:16.773Z,101914.19
2023-03-02T14:37:47.861Z,101906.31
2023-03-02T14:40:18.276Z,101910.88
2023-03-02T14:42:48.504Z,101911.00
2023-03-02T14:45:17.292Z,101905.34
2023-03-02T14:47:45.371Z,101910.94
2023-03-02T14:50:14.514Z,101930.09
2023-03-02T14:52:45.684Z,101908.69
2023-03-02T14:55:19.305Z,101909.72
2023-03-02T14:57:53.276Z,101918.34
2023-03-02T15:00:22.482Z,101921.59
2023-03-02T15:02:50.371Z,101921.84
2023-03-02T15:05:18.928Z,101908.53
2023-03-02T15:07:47.405Z,101905.19
2023-03-02T15:10:19.369Z,101920.97
2023-03-02T15:12:49.171Z,101916.13
2023-03-02T15:15:17.431Z,101905.28
2023-03-02T15:17:45.218Z,101908.91
2023-03-02T15:20:15.573Z,101913.16
2023-03-02T15:22:43.657Z,101911.03
2023-03-02T15:25:11.610Z,101902.59
2023-03-02T15:27:39.464Z,101900.94
2023-03-02T15:30:10.265Z,101900.13
2023-03-02T15:32:38.109Z,101899.66
2023-03-02T15:35:06.761Z,101904.88
2023-03-02T15:37:34.996Z,101905.31
2023-03-02T15:40:02.700Z,101899.53
2023-03-02T15:42:30.560Z,101906.28
2023-03-02T15:44:58.352Z,101906.94
2023-03-02T15:47:27.704Z,101901.66
2023-03-02T15:49:55.506Z,101907.03
2023-03-02T15:52:23.369Z,101908.28
2023-03-02T15:54:51.368Z,101906.38
2023-03-02T15:57:19.678Z,101910.44
2023-03-02T15:59:47.960Z,101911.50
2023-03-02T16:02:16.575Z,101911.44
2023-03-02T16:04:46.491Z,101912.91
2023-03-02T16:07:14.987Z,101924.00
2023-03-02T16:09:45.246Z,101919.00
2023-03-02T16:12:13.248Z,101918.31
2023-03-02T16:14:41.314Z,101931.44
2023-03-02T16:17:09.052Z,101939.41
2023-03-02T16:19:37.800Z,101928.72
2023-03-02T16:22:07.042Z,101935.19
2023-03-02T16:24:34.747Z,101927.75
2023-03-02T16:27:02.575Z,101925.03
2023-03-02T16:29:31.114Z,101931.75
2023-03-02T16:31:59.335Z,101932.31
2023-03-02T16:34:27.210Z,101932.75
2023-03-02T16:36:54.977Z,101941.59
2023-03-02T16:39:24.486Z,101939.81
2023-03-02T16:41:52.725Z,101936.44
2023-03-02T16:44:20.835Z,101931.66
2023-03-02T16:46:48.619Z,101932.38
2023-03-02T16:49:16.544Z,101942.88
2023-03-02T16:51:44.661Z,101943.44
2023-03-02T16:54:16.760Z,101953.16
2023-03-02T16:56:47.315Z,101944.25
2023-03-02T16:59:15.666Z,101944.38
2023-03-02T17:01:43.618Z,101948.16
2023-03-02T17:04:11.477Z,101953.19
2023-03-02T17:06:41.692Z,101957.56
2023-03-02T17:09:10.256Z,101948.84
2023-03-02T17:11:38.877Z,101940.72
2023-03-02T17:14:08.136Z,101945.81
2023-03-02T17:16:36.045Z,101950.44
2023-03-02T17:19:03.779Z,101947.13
2023-03-02T17:21:31.591Z,101948.38
2023-03-02T17:23:59.485Z,101950.63
2023-03-02T17:26:28.954Z,101954.00
2023-03-02T17:28:56.775Z,101959.19
2023-03-02T17:31:26.758Z,101959.69
2023-03-02T17:33:54.542Z,101958.88
2023-03-02T17:36:22.258Z,101963.41
2023-03-02T17:38:50.223Z,101967.31
2023-03-02T17:41:18.157Z,101967.56
2023-03-02T17:43:45.983Z,101974.81
2023-03-02T17:46:16.194Z,101979.84
2023-03-02T17:48:45.461Z,101982.69
2023-03-02T17:51:14.923Z,101991.94
2023-03-02T17:53:43.145Z,102001.59
2023-03-02T17:56:12.084Z,102006.63
2023-03-02T17:58:44.959Z,101996.69
2023-03-02T18:01:15.554Z,101994.00
2023-03-02T18:03:44.942Z,102003.75
2023-03-02T18:06:17.884Z,102014.03
2023-03-02T18:08:46.011Z,102027.63
2023-03-02T18:11:13.911Z,102030.97
2023-03-02T18:13:41.687Z,102030.84
2023-03-02T18:16:09.756Z,102024.81
2023-03-02T18:18:37.794Z,102040.97
2023-03-02T18:21:06.093Z,102043.38
2023-03-02T18:23:35.565Z,102042.34
2023-03-02T18:26:03.390Z,102047.31
2023-03-02T18:28:31.134Z,102055.06
2023-03-02T18:30:58.957Z,102053.75
2023-03-02T18:33:27.475Z,102061.22
2023-03-02T18:35:55.291Z,102058.06
2023-03-02T18:38:23.076Z,102065.09
2023-03-02T18:40:52.314Z,102070.47
2023-03-02T18:43:20.059Z,102061.94
2023-03-02T18:45:47.907Z,102075.13
2023-03-02T18:48:15.754Z,102077.72
2023-03-02T18:50:43.932Z,102089.38
2023-03-02T18:53:12.961Z,102082.34
2023-03-02T18:55:41.325Z,102082.66
2023-03-02T18:58:18.275Z,102093.56
2023-03-02T19:00:47.027Z,102095.50
2023-03-02T19:03:16.055Z,102094.88
2023-03-02T19:05:45.164Z,102096.78
2023-03-02T19:08:13.227Z,102096.81
2023-03-02T19:10:42.428Z,102094.47
2023-03-02T19:13:11.999Z,102094.53
2023-03-02T19:15:40.363Z,102098.72
2023-03-02T19:18:08.723Z,102095.38
2023-03-02T19:20:36.859Z,102108.00
2023-03-02T19:23:04.722Z,102101.28
2023-03-02T19:25:32.483Z,102109.31
2023-03-02T19:28:00.203Z,102114.28
2023-03-02T19:30:29.664Z,102108.56
2023-03-02T19:32:57.856Z,102103.25
2023-03-02T19:35:28.200Z,102112.03
2023-03-02T19:37:56.477Z,102108.81
2023-03-02T19:40:27.757Z,102119.34
2023-03-02T19:42:57.518Z,102112.38
2023-03-02T19:45:29.206Z,102118.88
2023-03-02T19:47:59.658Z,102125.34
2023-03-02T19:50:28.225Z,102115.03
2023-03-02T19:52:56.654Z,102118.72
2023-03-02T19:55:25.462Z,102110.81
2023-03-02T19:57:59.843Z,102121.50
2023-03-02T20:00:29.809Z,102112.84
2023-03-02T20:02:59.747Z,102105.91
2023-03-02T20:05:28.351Z,102115.59
2023-03-02T20:07:56.865Z,102119.19
2023-03-02T20:10:31.352Z,102115.22
2023-03-02T20:13:00.362Z,102129.47
2023-03-02T20:15:29.878Z,102127.94
2023-03-02T20:18:02.406Z,102132.34
2023-03-02T20:20:30.913Z,102125.81
2023-03-02T20:23:00.090Z,102124.19
2023-03-02T20:25:28.731Z,102117.13
2023-03-02T20:27:58.123Z,102121.91
2023-03-02T20:30:30.155Z,102128.06
2023-03-02T20:33:00.671Z,102128.19
2023-03-02T20:35:31.677Z,102138.66
2023-03-02T20:38:05.313Z,102137.69
2023-03-02T20:40:33.320Z,102141.44
2023-03-02T20:43:01.240Z,102145.22
2023-03-02T20:45:29.712Z,102152.41
2023-03-02T20:47:59.133Z,102144.59
2023-03-02T20:50:31.144Z,102146.03
2023-03-02T20:52:59.541Z,102139.88
2023-03-02T20:55:27.759Z,102147.03
2023-03-02T20:57:56.549Z,102148.06
2023-03-02T21:00:28.347Z,102149.09
2023-03-02T21:02:57.095Z,102145.31
2023-03-02T21:05:27.976Z,102149.91
2023-03-02T21:07:56.139Z,102154.16
2023-03-02T21:10:27.580Z,102140.38
2023-03-02T21:12:55.780Z,102142.00
2023-03-02T21:15:27.242Z,102141.09
2023-03-02T21:17:55.764Z,102139.38
2023-03-02T21:20:24.676Z,102136.84
2023-03-02T21:22:54.020Z,102138.75
2023-03-02T21:25:22.148Z,102144.03
2023-03-02T21:27:49.918Z,102141.47
2023-03-02T21:30:22.398Z,102142.31
2023-03-02T21:32:50.633Z,102149.53
2023-03-02T21:35:20.956Z,102134.34
2023-03-02T21:37:50.474Z,102141.56
2023-03-02T21:40:22.134Z,102138.91
2023-03-02T21:42:49.952Z,102136.28
2023-03-02T21:45:18.630Z,102138.13
2023-03-02T21:47:46.954Z,102139.66
2023-03-02T21:50:20.413Z,102138.06
2023-03-02T21:52:48.310Z,102130.97
2023-03-02T21:55:16.194Z,102134.59
2023-03-02T21:57:46.032Z,102130.19
2023-03-02T22:00:20.994Z,102137.25
2023-03-02T22:02:49.113Z,102130.25
2023-03-02T22:05:17.134Z,102130.13
2023-03-02T22:07:45.533Z,102132.03
2023-03-02T22:10:23.378Z,102133.78
2023-03-02T22:12:55.919Z,102140.84
2023-03-02T22:15:24.821Z,102134.75
2023-03-02T22:17:52.995Z,102142.75
2023-03-02T22:20:21.359Z,102142.72
2023-03-02T22:22:50.711Z,102147.25
2023-03-02T22:25:20.007Z,102151.78
2023-03-02T22:27:48.083Z,102149.94
2023-03-02T22:30:21.505Z,102142.88
2023-03-02T22:32:49.913Z,102141.06
2023-03-02T22:35:23.420Z,102143.78
2023-03-02T22:37:52.770Z,102149.84
2023-03-02T22:40:30.220Z,102155.28
2023-03-02T22:43:10.968Z,102159.66
2023-03-02T22:45:41.814Z,102154.25
2023-03-02T22:48:15.740Z,102159.72
2023-03-02T22:50:44.996Z,102167.69
2023-03-02T22:53:29.180Z,102161.50
2023-03-02T22:55:59.479Z,102160.59
2023-03-02T22:58:43.793Z,102158.84
2023-03-02T23:01:22.166Z,102166.78
2023-03-02T23:03:52.683Z,102159.72
2023-03-02T23:06:26.926Z,102167.72
2023-03-02T23:08:56.491Z,102164.22
2023-03-02T23:11:25.432Z,102176.63
2023-03-02T23:13:54.754Z,102174.00
2023-03-02T23:16:26.190Z,102180.19
2023-03-02T23:18:56.012Z,102182.00
2023-03-02T23:21:28.220Z,102174.00
2023-03-02T23:23:56.806Z,102185.53
2023-03-02T23:26:24.753Z,102192.59
2023-03-02T23:28:52.680Z,102201.47
2023-03-02T23:31:21.219Z,102194.41
2023-03-02T23:33:50.408Z,102195.31
2023-03-02T23:36:21.091Z,102192.59
2023-03-02T23:38:49.178Z,102189.81
2023-03-02T23:41:18.338Z,102196.19
2023-03-02T23:43:46.218Z,102190.84
2023-03-02T23:46:14.538Z,102193.53
2023-03-02T23:48:42.721Z,102190.88
2023-03-02T23:51:12.016Z,102190.88
2023-03-02T23:53:39.956Z,102191.75
2023-03-02T23:56:08.110Z,102203.28
2023-03-02T23:58:35.959Z,102197.94
